createdAt,value
2022-09-07T00:45:50.894Z,101393.41
2022-09-07T00:48:18.490Z,101384.97
2022-09-07T00:50:47.335Z,101388.59
2022-09-07T00:53:23.256Z,101384.97
2022-09-07T00:55:50.863Z,101382.97
2022-09-07T00:58:18.592Z,101379.34
2022-09-07T01:47:40.208Z,101373.72
2022-09-07T01:50:08.587Z,101382.16
2022-09-07T01:52:37.276Z,101372.91
2022-09-07T01:55:06.313Z,101362.47
2022-09-07T01:57:34.776Z,101367.28
2022-09-07T02:00:04.343Z,101365.66
2022-09-07T02:45:17.217Z,101348.00
2022-09-07T02:47:51.012Z,101354.44
2022-09-07T02:50:37.349Z,101355.22
2022-09-07T02:53:09.581Z,101352.44
2022-09-07T02:55:38.892Z,101354.44
2022-09-07T02:58:10.591Z,101351.63
2022-09-07T04:31:20.117Z,101305.38
2022-09-07T04:33:48.226Z,101301.38
2022-09-07T04:36:15.983Z,101294.94
2022-09-07T04:38:43.504Z,101295.75
2022-09-07T04:41:11.372Z,101299.75
2022-09-07T04:43:39.259Z,101287.31
2022-09-07T04:46:07.164Z,101278.06
2022-09-07T04:48:36.275Z,101283.69
2022-09-07T04:51:05.856Z,101277.25
2022-09-07T04:53:33.575Z,101278.06
2022-09-07T04:56:01.254Z,101275.25
2022-09-07T04:58:28.897Z,101273.25
2022-09-07T05:00:56.740Z,101271.66
2022-09-07T05:03:24.334Z,101268.84
2022-09-07T05:05:53.280Z,101272.44
2022-09-07T05:08:20.857Z,101278.88
2022-09-07T05:10:51.540Z,101271.66
2022-09-07T05:13:19.085Z,101277.25
2022-09-07T05:15:46.611Z,101271.66
2022-09-07T05:18:14.517Z,101270.44
2022-09-07T05:20:42.116Z,101271.66
2022-09-07T05:23:11.040Z,101266.03
2022-09-07T05:25:43.291Z,101266.84
2022-09-07T05:28:10.978Z,101264.41
2022-09-07T05:36:13.681Z,101272.44
2022-09-07T05:38:42.609Z,101270.03
2022-09-07T05:41:13.565Z,101271.66
2022-09-07T05:46:29.164Z,101273.66
2022-09-07T05:48:57.205Z,101271.66
2022-09-07T05:51:24.730Z,101272.84
2022-09-07T05:53:53.618Z,101272.84
2022-09-07T05:56:21.172Z,101275.63
2022-09-07T05:58:49.004Z,101287.69
2022-09-07T06:01:16.521Z,101288.50
2022-09-07T06:03:44.479Z,101275.63
2022-09-07T06:06:12.297Z,101274.44
2022-09-07T06:08:40.308Z,101270.03
2022-09-07T06:11:09.331Z,101270.84
2022-09-07T06:13:36.916Z,101275.63
2022-09-07T06:16:05.385Z,101268.84
2022-09-07T06:18:33.065Z,101275.63
2022-09-07T06:21:02.987Z,101272.84
2022-09-07T06:23:30.988Z,101262.78
2022-09-07T06:25:58.734Z,101267.22
2022-09-07T06:28:30.418Z,101266.41
2022-09-07T06:31:01.278Z,101261.59
2022-09-07T06:33:28.939Z,101262.41
2022-09-07T06:35:57.594Z,101268.03
2022-09-07T06:38:27.732Z,101258.78
2022-09-07T06:43:50.100Z,101258.78
2022-09-07T06:49:05.397Z,101255.16
2022-09-07T06:51:32.937Z,101252.34
2022-09-07T06:56:49.538Z,101257.97
2022-09-07T06:59:18.654Z,101241.09
2022-09-07T07:01:46.327Z,101246.72
2022-09-07T07:04:14.261Z,101240.31
2022-09-07T07:06:41.808Z,101241.91
2022-09-07T07:09:09.668Z,101242.72
2022-09-07T07:11:38.189Z,101249.16
2022-09-07T07:14:05.709Z,101253.16
2022-09-07T07:16:34.606Z,101253.16
2022-09-07T07:19:02.350Z,101247.53
2022-09-07T07:21:42.930Z,101247.53
2022-09-07T07:24:17.564Z,101242.72
2022-09-07T07:26:48.616Z,101241.91
2022-09-07T07:29:18.747Z,101242.72
2022-09-07T07:31:47.991Z,101229.06
2022-09-07T07:34:15.827Z,101229.06
2022-09-07T07:36:43.380Z,101230.69
2022-09-07T07:42:01.616Z,101233.47
2022-09-07T07:44:32.986Z,101230.69
2022-09-07T07:47:02.752Z,101219.44
2022-09-07T07:49:30.348Z,101229.50
2022-09-07T07:54:45.978Z,101242.72
2022-09-07T07:57:13.790Z,101252.34
2022-09-07T07:59:41.346Z,101251.53
2022-09-07T08:02:11.369Z,101248.34
2022-09-07T08:04:38.928Z,101241.91
2022-09-07T08:07:10.636Z,101225.06
2022-09-07T08:09:39.294Z,101233.47
2022-09-07T08:12:06.894Z,101241.91
2022-09-07T08:14:36.494Z,101241.91
2022-09-07T08:17:04.009Z,101224.25
2022-09-07T08:19:32.943Z,101230.69
2022-09-07T08:22:00.636Z,101225.88
2022-09-07T08:24:28.133Z,101219.44
2022-09-07T08:26:55.597Z,101225.88
2022-09-07T08:29:23.343Z,101221.06
2022-09-07T08:31:50.853Z,101219.44
2022-09-07T08:34:18.354Z,101221.06
2022-09-07T08:36:47.310Z,101214.63
2022-09-07T08:39:14.781Z,101208.19
2022-09-07T08:41:49.594Z,101215.44
2022-09-07T08:44:17.875Z,101209.81
2022-09-07T08:46:46.589Z,101204.19
2022-09-07T08:49:14.937Z,101221.06
2022-09-07T08:51:43.394Z,101209.00
2022-09-07T08:54:12.719Z,101221.06
2022-09-07T08:57:20.199Z,101221.06
2022-09-07T08:59:28.096Z,101230.69
2022-09-07T09:07:31.905Z,101221.06
2022-09-07T09:10:06.930Z,101214.63
2022-09-07T09:12:38.044Z,101215.44
2022-09-07T09:15:10.181Z,101201.38
2022-09-07T09:17:38.889Z,101204.19
2022-09-07T09:20:09.198Z,101204.19
2022-09-07T09:22:36.625Z,101192.94
2022-09-07T09:25:05.899Z,101199.38
2022-09-07T09:27:33.378Z,101199.38
2022-09-07T09:30:00.870Z,101200.19
2022-09-07T09:32:35.810Z,101205.00
2022-09-07T09:35:04.440Z,101200.19
2022-09-07T09:37:34.281Z,101205.81
2022-09-07T09:40:02.975Z,101200.19
2022-09-07T09:42:33.099Z,101200.19
2022-09-07T09:45:03.045Z,101188.94
2022-09-07T09:47:32.401Z,101181.72
2022-09-07T09:50:00.935Z,101194.56
2022-09-07T09:52:30.171Z,101177.72
2022-09-07T09:55:23.269Z,101172.09
2022-09-07T10:01:21.155Z,101172.09
2022-09-07T10:06:15.419Z,101173.75
2022-09-07T10:08:43.932Z,101172.91
2022-09-07T10:11:12.349Z,101166.47
2022-09-07T10:13:43.398Z,101176.53
2022-09-07T10:16:11.594Z,101170.09
2022-09-07T10:18:39.790Z,101166.47
2022-09-07T10:21:26.154Z,101172.91
2022-09-07T10:23:54.545Z,101166.47
2022-09-07T10:26:22.981Z,101167.28
2022-09-07T10:29:07.742Z,101156.88
2022-09-07T10:31:36.064Z,101156.88
2022-09-07T10:36:53.761Z,101151.25
2022-09-07T10:39:22.925Z,101151.25
2022-09-07T10:41:53.428Z,101141.63
2022-09-07T10:44:23.117Z,101140.81
2022-09-07T10:46:58.551Z,101140.00
2022-09-07T10:49:27.868Z,101152.88
2022-09-07T10:52:01.080Z,101158.50
2022-09-07T10:54:31.572Z,101151.25
2022-09-07T10:57:01.675Z,101161.31
2022-09-07T11:02:22.159Z,101158.50
2022-09-07T11:04:52.584Z,101144.44
2022-09-07T11:07:29.850Z,101146.06
2022-09-07T11:09:59.118Z,101143.25
2022-09-07T11:12:28.217Z,101141.63
2022-09-07T11:15:08.781Z,101141.63
2022-09-07T11:17:39.716Z,101144.88
2022-09-07T11:20:09.440Z,101148.88
2022-09-07T11:22:38.290Z,101155.69
2022-09-07T11:27:56.664Z,101153.69
2022-09-07T11:30:26.097Z,101157.31
2022-09-07T11:32:58.888Z,101153.69
2022-09-07T11:35:30.909Z,101157.31
2022-09-07T11:38:00.210Z,101155.31
2022-09-07T11:40:28.417Z,101155.31
2022-09-07T11:42:59.590Z,101149.69
2022-09-07T11:45:29.519Z,101152.50
2022-09-07T11:47:57.252Z,101147.69
2022-09-07T11:50:24.890Z,101143.25
2022-09-07T11:52:54.033Z,101142.06
2022-09-07T11:55:23.844Z,101144.88
2022-09-07T11:57:59.298Z,101139.25
2022-09-07T12:00:28.027Z,101139.25
2022-09-07T12:03:14.944Z,101130.81
2022-09-07T12:06:03.404Z,101138.44
2022-09-07T12:08:35.367Z,101128.00
2022-09-07T12:11:20.178Z,101130.81
2022-09-07T12:13:58.600Z,101128.00
2022-09-07T12:16:31.910Z,101121.56
2022-09-07T12:19:11.148Z,101122.38
2022-09-07T12:21:41.196Z,101108.34
2022-09-07T12:24:23.555Z,101117.56
2022-09-07T12:26:51.048Z,101108.34
2022-09-07T12:29:20.016Z,101106.31
2022-09-07T12:34:53.574Z,101099.91
2022-09-07T12:37:41.896Z,101100.72
2022-09-07T12:40:28.080Z,101098.69
2022-09-07T12:43:10.415Z,101095.91
2022-09-07T12:45:48.764Z,101090.28
2022-09-07T12:48:22.005Z,101084.66
2022-09-07T12:50:51.159Z,101085.84
2022-09-07T12:53:21.965Z,101083.03
2022-09-07T12:56:19.719Z,101090.28
2022-09-07T12:58:50.032Z,101093.09
2022-09-07T13:01:21.517Z,101085.47
2022-09-07T13:03:56.497Z,101086.28
2022-09-07T13:09:33.651Z,101076.69
2022-09-07T13:12:01.273Z,101073.88
2022-09-07T13:14:28.827Z,101076.69
2022-09-07T13:17:29.421Z,101077.84
2022-09-07T13:20:21.124Z,101080.66
2022-09-07T13:23:09.512Z,101076.69
2022-09-07T13:25:45.474Z,101076.69
2022-09-07T13:28:17.210Z,101073.88
2022-09-07T13:30:46.401Z,101081.09
2022-09-07T13:33:32.957Z,101076.69
2022-09-07T13:36:01.352Z,101065.44
2022-09-07T13:38:28.955Z,101062.63
2022-09-07T13:40:58.694Z,101069.06
2022-09-07T13:43:26.162Z,101059.81
2022-09-07T13:45:59.146Z,101055.00
2022-09-07T13:48:28.247Z,101059.81
2022-09-07T13:50:57.600Z,101052.53
2022-09-07T13:53:42.778Z,101048.56
2022-09-07T13:56:15.290Z,101048.56
2022-09-07T13:58:43.210Z,101044.56
2022-09-07T14:01:15.907Z,101049.38
2022-09-07T14:03:45.994Z,101051.38
2022-09-07T14:06:17.305Z,101055.00
2022-09-07T14:08:47.994Z,101043.75
2022-09-07T14:11:20.100Z,101050.19
2022-09-07T14:13:47.612Z,101038.94
2022-09-07T14:16:15.047Z,101044.56
2022-09-07T14:18:42.537Z,101041.75
2022-09-07T14:21:10.139Z,101039.75
2022-09-07T14:23:39.876Z,101040.56
2022-09-07T14:26:16.691Z,101031.31
2022-09-07T14:28:46.372Z,101036.13
2022-09-07T14:31:14.295Z,101034.94
2022-09-07T14:33:46.694Z,101027.69
2022-09-07T14:36:39.265Z,101023.69
2022-09-07T14:39:05.094Z,101018.06
2022-09-07T14:41:34.647Z,101018.06
2022-09-07T14:44:03.652Z,101012.44
2022-09-07T14:46:33.337Z,101012.44
2022-09-07T14:49:01.571Z,101008.44
2022-09-07T14:51:35.638Z,101004.81
2022-09-07T14:54:04.348Z,101014.06
2022-09-07T14:56:32.679Z,101014.06
2022-09-07T14:59:00.106Z,101010.44
2022-09-07T15:01:44.379Z,101018.06
2022-09-07T15:04:17.223Z,101015.25
2022-09-07T15:07:02.174Z,101014.06
2022-09-07T15:09:30.920Z,101011.25
2022-09-07T15:12:05.731Z,101008.44
2022-09-07T15:14:33.336Z,101010.06
2022-09-07T15:19:50.710Z,101014.06
2022-09-07T15:22:18.519Z,101014.06
2022-09-07T15:24:47.344Z,101021.31
2022-09-07T15:27:20.853Z,101021.31
2022-09-07T15:29:48.300Z,101020.16
2022-09-07T15:32:18.184Z,101026.94
2022-09-07T15:34:45.901Z,101015.69
2022-09-07T15:40:01.922Z,101011.25
2022-09-07T15:45:17.161Z,101017.34
2022-09-07T15:47:51.943Z,101012.88
2022-09-07T15:50:23.184Z,101008.09
2022-09-07T15:52:51.050Z,100999.66
2022-09-07T15:55:18.488Z,100998.81
2022-09-07T15:57:52.715Z,100994.84
2022-09-07T16:00:22.377Z,100986.41
2022-09-07T16:03:07.846Z,100989.22
2022-09-07T16:05:35.989Z,100983.59
2022-09-07T16:10:55.730Z,100966.72
2022-09-07T16:13:31.826Z,100973.97
2022-09-07T16:15:59.900Z,100967.53
2022-09-07T16:18:31.375Z,100967.53
2022-09-07T16:21:04.456Z,100955.50
2022-09-07T16:23:31.949Z,100957.91
2022-09-07T16:26:00.122Z,100953.09
2022-09-07T16:28:27.790Z,100959.91
2022-09-07T16:30:56.263Z,100957.09
2022-09-07T16:33:29.184Z,100947.47
2022-09-07T16:36:00.455Z,100944.25
2022-09-07T16:41:15.441Z,100946.69
2022-09-07T16:43:42.974Z,100945.88
2022-09-07T16:46:11.080Z,100948.69
2022-09-07T16:48:38.533Z,100947.47
2022-09-07T16:51:07.599Z,100952.28
2022-09-07T16:53:36.089Z,100951.50
2022-09-07T16:56:03.561Z,100957.09
2022-09-07T16:58:35.753Z,100940.25
2022-09-07T17:01:03.988Z,100946.69
2022-09-07T17:03:31.744Z,100947.47
2022-09-07T17:06:00.325Z,100941.84
2022-09-07T17:08:29.196Z,100948.28
2022-09-07T17:10:59.363Z,100943.47
2022-09-07T17:13:27.281Z,100941.84
2022-09-07T17:15:54.894Z,100949.09
2022-09-07T17:19:28.950Z,100949.09
2022-09-07T17:21:10.094Z,100967.16
2022-09-07T17:23:47.835Z,100946.28
2022-09-07T17:26:19.497Z,100951.91
2022-09-07T17:28:47.827Z,100953.09
2022-09-07T17:32:23.868Z,100943.47
2022-09-07T17:34:05.460Z,100937.84
2022-09-07T17:36:34.393Z,100934.22
2022-09-07T17:39:19.542Z,100921.00
2022-09-07T17:41:47.650Z,100943.47
2022-09-07T17:44:15.323Z,100947.09
2022-09-07T17:46:42.855Z,100946.28
2022-09-07T17:49:12.491Z,100938.66
2022-09-07T17:51:40.024Z,100944.28
2022-09-07T17:54:11.358Z,100951.53
2022-09-07T17:56:39.574Z,100960.34
2022-09-07T18:01:54.838Z,100980.47
2022-09-07T18:04:22.926Z,100981.63
2022-09-07T18:06:50.656Z,100983.63
2022-09-07T18:09:19.826Z,100988.44
2022-09-07T18:11:48.981Z,100994.06
2022-09-07T18:14:17.093Z,100990.06
2022-09-07T18:16:45.431Z,101000.50
2022-09-07T18:19:13.179Z,101005.31
2022-09-07T18:21:42.191Z,100999.69
2022-09-07T18:24:13.537Z,101002.97
2022-09-07T18:26:43.164Z,101002.50
2022-09-07T18:29:27.295Z,101005.31
2022-09-07T18:31:56.774Z,101012.56
2022-09-07T18:34:25.212Z,101020.19
2022-09-07T18:36:53.790Z,101015.38
2022-09-07T18:39:22.888Z,101016.16
2022-09-07T18:41:53.344Z,101012.56
2022-09-07T18:47:17.515Z,101002.13
2022-09-07T18:49:49.079Z,101005.31
2022-09-07T18:55:07.194Z,100995.69
2022-09-07T18:57:36.703Z,100990.06
2022-09-07T19:00:05.035Z,100996.88
2022-09-07T19:02:33.552Z,101000.50
2022-09-07T19:07:49.426Z,101004.94
2022-09-07T19:10:17.845Z,101014.19
2022-09-07T19:12:47.377Z,101009.75
2022-09-07T19:15:15.520Z,101012.56
2022-09-07T19:17:43.651Z,101008.56
2022-09-07T19:20:11.411Z,101001.31
2022-09-07T19:22:39.109Z,101007.75
2022-09-07T19:25:07.136Z,101006.94
2022-09-07T19:27:34.654Z,100998.50
2022-09-07T19:30:03.510Z,101001.31
2022-09-07T19:32:31.095Z,101008.56
2022-09-07T19:34:59.342Z,101002.97
2022-09-07T19:37:29.008Z,101004.56
2022-09-07T19:39:57.179Z,101002.97
2022-09-07T19:42:25.259Z,101008.56
2022-09-07T19:44:53.090Z,101000.16
2022-09-07T19:47:22.299Z,101002.97
2022-09-07T19:49:50.185Z,101007.75
2022-09-07T19:52:18.151Z,101002.13
2022-09-07T19:54:46.040Z,100995.69
2022-09-07T19:57:13.811Z,100999.75
2022-09-07T19:59:41.608Z,100991.72
2022-09-07T20:02:10.229Z,100980.47
2022-09-07T20:04:39.417Z,100984.44
2022-09-07T20:07:07.511Z,100984.44
2022-09-07T20:09:35.181Z,100986.09
2022-09-07T20:12:03.860Z,100969.22
2022-09-07T20:14:31.531Z,100969.22
2022-09-07T20:16:59.733Z,100955.16
2022-09-07T20:19:27.708Z,100951.53
2022-09-07T20:21:57.285Z,100945.91
2022-09-07T20:24:25.044Z,100940.28
2022-09-07T20:26:52.778Z,100941.13
2022-09-07T20:29:29.016Z,100938.31
2022-09-07T20:31:57.665Z,100941.13
2022-09-07T20:34:25.688Z,100938.31
2022-09-07T20:36:53.431Z,100936.28
2022-09-07T20:39:22.781Z,100936.28
2022-09-07T20:41:50.729Z,100929.88
2022-09-07T20:44:18.520Z,100935.50
2022-09-07T20:46:46.594Z,100941.91
2022-09-07T20:49:14.279Z,100934.66
2022-09-07T20:51:42.273Z,100937.09
2022-09-07T20:54:10.155Z,100935.50
2022-09-07T20:56:39.791Z,100929.03
2022-09-07T20:59:24.839Z,100932.69
2022-09-07T21:01:52.782Z,100929.88
2022-09-07T21:04:20.708Z,100941.91
2022-09-07T21:06:48.248Z,100937.09
2022-09-07T21:09:15.722Z,100943.94
2022-09-07T21:11:49.033Z,100933.84
2022-09-07T21:14:17.765Z,100940.28
2022-09-07T21:16:45.324Z,100942.72
2022-09-07T21:19:12.966Z,100941.91
2022-09-07T21:21:41.057Z,100931.84
2022-09-07T21:24:13.179Z,100929.88
2022-09-07T21:26:40.759Z,100934.66
2022-09-07T21:29:32.785Z,100935.50
2022-09-07T21:32:00.448Z,100921.44
2022-09-07T21:34:28.077Z,100921.44
2022-09-07T21:36:55.619Z,100917.78
2022-09-07T21:39:23.373Z,100929.88
2022-09-07T21:41:51.080Z,100925.41
2022-09-07T21:44:20.398Z,100936.28
2022-09-07T21:46:48.007Z,100939.91
2022-09-07T21:49:15.598Z,100934.66
2022-09-07T21:51:43.206Z,100941.13
2022-09-07T21:54:10.720Z,100935.50
2022-09-07T21:56:40.181Z,100931.03
2022-09-07T21:59:10.721Z,100924.25
2022-09-07T22:01:40.252Z,100922.59
2022-09-07T22:04:07.993Z,100924.25
2022-09-07T22:06:35.579Z,100924.25
2022-09-07T22:09:03.300Z,100929.88
2022-09-07T22:11:31.040Z,100927.06
2022-09-07T22:13:59.102Z,100935.50
2022-09-07T22:16:26.698Z,100943.94
2022-09-07T22:18:55.685Z,100932.69
2022-09-07T22:21:24.194Z,100937.47
2022-09-07T22:23:52.558Z,100935.50
2022-09-07T22:26:20.516Z,100927.88
2022-09-07T22:28:48.364Z,100929.88
2022-09-07T22:31:17.232Z,100929.88
2022-09-07T22:33:44.882Z,100921.78
2022-09-07T22:36:16.483Z,100935.50
2022-09-07T22:38:44.144Z,100928.69
2022-09-07T22:41:11.875Z,100930.69
2022-09-07T22:43:39.479Z,100925.06
2022-09-07T22:46:07.098Z,100929.88
2022-09-07T22:48:34.938Z,100924.25
2022-09-07T22:51:03.432Z,100922.59
2022-09-07T22:53:32.665Z,100913.00
2022-09-07T22:56:00.289Z,100913.00
2022-09-07T22:58:28.971Z,100909.34
2022-09-07T23:47:38.665Z,100863.22
2022-09-07T23:50:06.648Z,100865.56
2022-09-07T23:52:34.344Z,100870.84
2022-09-07T23:55:11.120Z,100873.66
2022-09-07T23:57:38.827Z,100879.28
